Time;durP1;ratioP1;P1;durP2;ratioP2;P2;SDS_P1;SDS_P2;PMS_P1;PMS_P2;Temp;Humidity;BMP_temperature;BMP_pressure;BME280_temperature;BME280_humidity;BME280_pressure;Samples;Min_cycle;Max_cycle;Signal;HPM_P1;HPM_P2
2021/05/11 00:01:05;;;;;;;;;;;;;;;;;;3559333;40;20283;-66
2021/05/11 00:03:31;;;;;;;;;;;;;;;;;;3559020;40;19929;-67
2021/05/11 00:05:57;;;;;;;;;;;;;;;;;;3551292;40;19933;-67
2021/05/11 00:08:23;;;;;;;;;;;;;;;;;;3559263;40;20194;-67
2021/05/11 00:10:49;;;;;;;;;;;;;;;;;;3559123;40;19933;-67
2021/05/11 00:13:15;;;;;;;;;;;;;;;;;;3559157;40;20073;-67
2021/05/11 00:15:41;;;;;;;;;;;;;;;;;;3551868;40;19945;-66
2021/05/11 00:18:07;;;;;;;;;;;;;;;;;;3549916;40;19969;-67
2021/05/11 00:20:33;;;;;;;;;;;;;;;;;;3560145;40;19933;-67
2021/05/11 00:22:59;;;;;;;;;;;;;;;;;;3559022;40;19955;-68
2021/05/11 00:25:24;;;;;;;;;;;;;;;;;;3559706;40;20015;-68
2021/05/11 00:27:50;;;;;;;;;;;;;;;;;;3562323;40;19945;-68
2021/05/11 00:30:16;;;;;;;;;;;;;;;;;;3550001;40;19949;-68
2021/05/11 00:32:42;;;;;;;;;;;;;;;;;;3561283;40;19942;-67
2021/05/11 00:35:08;;;;;;;;;;;;;;;;;;3557866;40;19933;-67
2021/05/11 00:37:36;;;;;;;;;;;;;;;;;;3560644;40;20195;-67
2021/05/11 00:40:02;;;;;;;;;;;;;;;;;;3566599;40;19939;-67
2021/05/11 00:42:28;;;;;;;;;;;;;;;;;;3564143;40;19948;-68
2021/05/11 00:44:54;;;;;;;;;;;;;;;;;;3565135;40;19933;-68
2021/05/11 00:47:20;;;;;;;;;;;;;;;;;;3566610;40;19952;-68
2021/05/11 00:49:48;;;;;;;;;;;;;;;;;;3561558;40;19940;-68
2021/05/11 00:52:14;;;;;;;;;;;;;;;;;;3561318;40;19940;-68
2021/05/11 00:54:40;;;;;;;;;;;;;;;;;;3561729;40;19948;-68
2021/05/11 00:57:06;;;;;;;;;;;;;;;;;;3560580;40;20267;-68
2021/05/11 00:59:32;;;;;;;;;;;;;;;;;;3560603;40;19973;-72
2021/05/11 01:01:58;;;;;;;;;;;;;;;;;;3560936;40;19929;-70
2021/05/11 01:04:24;;;;;;;;;;;;;;;;;;3577671;23;19940;-65
2021/05/11 01:06:50;;;;;;;;;;;;;;;;;;3550894;40;20294;-65
2021/05/11 01:09:16;;;;;;;;;;;;;;;;;;3553303;40;19933;-65
2021/05/11 01:11:42;;;;;;;;;;;;;;;;;;3550544;40;19991;-65
2021/05/11 01:14:08;;;;;;;;;;;;;;;;;;3547292;40;19930;-65
2021/05/11 01:16:34;;;;;;;;;;;;;;;;;;3550451;40;19937;-66
2021/05/11 01:19:25;;;;;;;;;;;;;;;;;;3550016;40;19938;-65
2021/05/11 01:24:27;;;;;;;;;;;;;;;;;;3551717;40;19930;-66
2021/05/11 01:46:15;;;;;;;;;;;;;;;;;;3550344;40;19956;-65
2021/05/11 01:53:40;;;;;;;;;;;;;;;;;;3548550;40;19934;-65
2021/05/11 01:56:41;;;;;;;;;;;;;;;;;;3553919;40;19929;-65
2021/05/11 02:10:16;;;;;;;;;;;;;;;;;;3555389;40;20028;-65
2021/05/11 02:22:36;;;;;;;;;;;;;;;;;;3557724;40;19965;-65
2021/05/11 02:24:10;;;;;;;;;;;;;;;;;;3531303;40;19933;-65
2021/05/11 02:26:36;;;;;;;;;;;;;;;;;;3543166;40;19934;-65
2021/05/11 02:29:02;;;;;;;;;;;;;;;;;;3548200;40;19996;-65
2021/05/11 02:31:28;;;;;;;;;;;;;;;;;;3547316;40;19934;-65
2021/05/11 02:33:57;;;;;;;;;;;;;;;;;;3539048;40;19933;-65
2021/05/11 02:36:23;;;;;;;;;;;;;;;;;;3542867;40;19934;-65
2021/05/11 02:38:49;;;;;;;;;;;;;;;;;;3546861;40;19945;-66
2021/05/11 02:41:14;;;;;;;;;;;;;;;;;;3539486;40;19956;-65
2021/05/11 02:43:42;;;;;;;;;;;;;;;;;;3547655;40;20210;-65
2021/05/11 02:46:08;;;;;;;;;;;;;;;;;;3548172;40;20310;-65
2021/05/11 02:48:34;;;;;;;;;;;;;;;;;;3546677;40;19962;-65
2021/05/11 02:51:00;;;;;;;;;;;;;;;;;;3547307;40;19945;-65
2021/05/11 02:53:26;;;;;;;;;;;;;;;;;;3559557;40;20287;-65
2021/05/11 02:55:52;;;;;;;;;;;;;;;;;;3548313;40;19940;-63
2021/05/11 02:58:18;;;;;;;;;;;;;;;;;;3550574;40;19941;-64
2021/05/11 03:00:45;;;;;;;;;;;;;;;;;;3559492;40;19940;-64
2021/05/11 03:03:11;;;;;;;;;;;;;;;;;;3559351;40;20305;-63
2021/05/11 03:05:37;;;;;;;;;;;;;;;;;;3559389;40;19933;-63
2021/05/11 03:08:03;;;;;;;;;;;;;;;;;;3559423;40;19937;-64
2021/05/11 03:10:29;;;;;;;;;;;;;;;;;;3559467;40;19937;-64
2021/05/11 03:12:54;;;;;;;;;;;;;;;;;;3559497;40;19983;-64
2021/05/11 03:15:20;;;;;;;;;;;;;;;;;;3562243;40;19945;-64
2021/05/11 03:17:46;;;;;;;;;;;;;;;;;;3557251;40;19930;-63
2021/05/11 03:20:12;;;;;;;;;;;;;;;;;;3558376;40;19936;-64
2021/05/11 03:22:38;;;;;;;;;;;;;;;;;;3559327;40;19936;-63
2021/05/11 03:25:04;;;;;;;;;;;;;;;;;;3559248;40;19930;-63
2021/05/11 03:27:30;;;;;;;;;;;;;;;;;;3559211;40;19937;-64
2021/05/11 03:29:56;;;;;;;;;;;;;;;;;;3559313;40;19937;-63
2021/05/11 03:32:22;;;;;;;;;;;;;;;;;;3559414;40;19930;-64
2021/05/11 03:34:48;;;;;;;;;;;;;;;;;;3559265;40;19992;-63
2021/05/11 03:37:14;;;;;;;;;;;;;;;;;;3559201;40;19936;-63
2021/05/11 03:39:42;;;;;;;;;;;;;;;;;;3559229;40;20274;-64
2021/05/11 03:44:56;;;;;;;;;;;;;;;;;;3559097;40;19937;-63
2021/05/11 03:47:23;;;;;;;;;;;;;;;;;;3556132;40;20031;-65
2021/05/11 03:49:49;;;;;;;;;;;;;;;;;;3549760;40;20195;-64
2021/05/11 03:52:15;;;;;;;;;;;;;;;;;;3552820;40;19934;-64
2021/05/11 03:54:41;;;;;;;;;;;;;;;;;;3553318;40;19934;-63
2021/05/11 03:57:07;;;;;;;;;;;;;;;;;;3560438;40;20201;-63
2021/05/11 03:59:35;;;;;;;;;;;;;;;;;;3558077;40;19933;-64
2021/05/11 04:02:01;;;;;;;;;;;;;;;;;;3550841;40;19948;-63
2021/05/11 04:04:27;;;;;;;;;;;;;;;;;;3560622;40;20305;-63
2021/05/11 04:06:53;;;;;;;;;;;;;;;;;;3560485;40;19937;-63
2021/05/11 04:09:27;;;;;;;;;;;;;;;;;;3552781;40;19951;-64
2021/05/11 04:17:23;;;;;;;;;;;;;;;;;;3530744;40;19935;-64
2021/05/11 04:19:49;;;;;;;;;;;;;;;;;;3555540;40;19944;-64
2021/05/11 04:22:14;;;;;;;;;;;;;;;;;;3560436;40;19966;-63
2021/05/11 04:24:40;;;;;;;;;;;;;;;;;;3559559;40;19958;-64
2021/05/11 04:27:06;;;;;;;;;;;;;;;;;;3559438;40;19945;-63
2021/05/11 04:29:34;;;;;;;;;;;;;;;;;;3562473;40;19942;-64
2021/05/11 04:32:00;;;;;;;;;;;;;;;;;;3553815;40;19945;-64
2021/05/11 04:34:26;;;;;;;;;;;;;;;;;;3552797;40;20023;-64
2021/05/11 04:36:52;;;;;;;;;;;;;;;;;;3558316;40;19934;-64
2021/05/11 04:39:18;;;;;;;;;;;;;;;;;;3562026;40;20019;-64
2021/05/11 04:41:44;;;;;;;;;;;;;;;;;;3553031;40;19933;-63
2021/05/11 04:44:10;;;;;;;;;;;;;;;;;;3562991;40;20278;-64
2021/05/11 04:49:25;;;;;;;;;;;13.90;99.90;;;;;;3529528;40;19934;-64
2021/05/11 04:51:51;;;;;;;;;;;13.90;99.90;;;;;;3556669;40;19945;-64
2021/05/11 04:54:16;;;;;;;;;;;14.00;99.90;;;;;;3557366;40;20015;-63
2021/05/11 04:56:42;;;;;;;;;;;13.90;99.90;;;;;;3560576;40;20309;-65
2021/05/11 04:59:08;;;;;;;;;;;13.90;99.90;;;;;;3560192;40;19940;-63
2021/05/11 05:01:34;;;;;;;;;;;14.00;99.90;;;;;;3560253;40;19940;-63
2021/05/11 05:04:01;;;;;;;;;;;13.90;99.90;;;;;;3559901;40;19948;-64
2021/05/11 05:06:27;;;;;;;;;;;14.00;99.90;;;;;;3559605;40;19975;-64
2021/05/11 05:08:52;;;;;;;;;;;14.00;99.90;;;;;;3558805;40;19933;-64
2021/05/11 05:11:18;;;;;;;;;;;14.00;99.90;;;;;;3550813;40;19966;-65
2021/05/11 05:13:44;;;;;;;;;;;13.90;99.90;;;;;;3550504;40;19933;-64
2021/05/11 05:16:10;;;;;;;;;;;13.90;99.90;;;;;;3550687;40;19934;-64
2021/05/11 05:18:36;;;;;;;;;;;13.90;99.90;;;;;;3559972;40;19941;-64
2021/05/11 05:21:08;;;;;;;;;;;14.00;99.90;;;;;;3558127;40;19941;-64
2021/05/11 05:23:42;;;;;;;;;;;13.90;99.90;;;;;;3550820;40;19973;-64
2021/05/11 05:26:11;;;;;;;;;;;13.90;99.90;;;;;;3547420;40;19934;-64
2021/05/11 05:28:41;;;;;;;;;;;14.00;99.90;;;;;;3559344;40;20191;-64
2021/05/11 05:31:07;;;;;;;;;;;13.90;99.90;;;;;;3558234;40;20019;-65
2021/05/11 05:33:33;;;;;;;;;;;13.90;99.90;;;;;;3555868;40;19941;-65
2021/05/11 05:35:59;;;;;;;;;;;13.90;99.90;;;;;;3558304;40;20195;-64
2021/05/11 05:38:27;;;;;;;;;;;13.90;99.90;;;;;;3560796;40;19933;-64
2021/05/11 05:41:01;;;;;;;;;;;13.90;99.90;;;;;;3560949;40;19937;-64
2021/05/11 05:43:27;;;;;;;;;;;13.90;99.90;;;;;;3551583;40;20291;-64
2021/05/11 05:45:53;;;;;;;;;;;13.80;99.90;;;;;;3557330;40;19975;-64
2021/05/11 05:48:20;;;;;;;;;;;13.80;99.90;;;;;;3549565;40;20255;-64
2021/05/11 05:50:47;;;;;;;;;;;13.90;99.90;;;;;;3557425;40;19938;-64
2021/05/11 05:53:15;;;;;;;;;;;13.90;99.90;;;;;;3557909;40;19965;-64
2021/05/11 05:55:42;;;;;;;;;;;13.90;99.90;;;;;;3559839;40;19934;-64
2021/05/11 05:58:07;;;;;;;;;;;13.90;99.90;;;;;;3559904;40;19938;-64
2021/05/11 06:00:36;;;;;;;;;;;13.90;99.90;;;;;;3559516;40;19933;-64
2021/05/11 06:03:05;;;;;;;;;;;13.90;99.90;;;;;;3559891;40;20279;-63
2021/05/11 06:05:32;;;;;;;;;;;13.80;99.90;;;;;;3550050;40;19937;-64
2021/05/11 06:07:58;;;;;;;;;;;13.70;99.90;;;;;;3559530;40;19940;-63
2021/05/11 06:10:26;;;;;;;;;;;13.70;99.90;;;;;;3550767;40;19937;-63
2021/05/11 06:12:57;;;;;;;;;;;13.70;99.90;;;;;;3559643;40;19937;-64
2021/05/11 06:18:07;;;;;;;;;;;13.70;99.90;;;;;;3558151;40;19989;-64
2021/05/11 06:20:33;;;;;;;;;;;13.60;99.90;;;;;;3559792;40;19945;-63
2021/05/11 06:22:58;;;;;;;;;;;13.60;99.90;;;;;;3562665;40;19940;-64
2021/05/11 06:25:24;;;;;;;;;;;13.60;99.90;;;;;;3559812;40;19942;-64
2021/05/11 06:27:55;;;;;;;;;;;13.60;99.90;;;;;;3559549;40;20023;-64
2021/05/11 06:30:21;;;;;;;;;;;13.60;99.90;;;;;;3559688;40;19973;-63
2021/05/11 06:32:47;;;;;;;;;;;13.60;99.90;;;;;;3562950;40;19946;-63
2021/05/11 06:35:12;;;;;;;;;;;13.60;99.90;;;;;;3557079;40;19938;-63
2021/05/11 06:37:38;;;;;;;;;;;13.50;99.90;;;;;;3559552;40;19939;-64
2021/05/11 06:40:05;;;;;;;;;;;13.50;99.90;;;;;;3560028;40;19973;-64
2021/05/11 06:42:31;;;;;;;;;;;13.50;99.90;;;;;;3551931;40;19934;-64
2021/05/11 06:52:55;;;;;;;;;;;13.40;99.90;;;;;;3559538;40;19930;-63
2021/05/11 06:55:21;;;;;;;;;;;13.40;99.90;;;;;;3557782;40;19944;-63
2021/05/11 06:57:47;;;;;;;;;;;13.30;99.90;;;;;;3559627;40;19937;-63
2021/05/11 07:00:14;;;;;;;;;;;13.30;99.90;;;;;;3559251;40;19940;-63
2021/05/11 07:02:40;;;;;;;;;;;13.30;99.90;;;;;;3558897;40;19934;-63
2021/05/11 07:05:06;;;;;;;;;;;13.30;99.90;;;;;;3550029;40;19944;-63
2021/05/11 07:07:33;;;;;;;;;;;13.30;99.90;;;;;;3559036;40;19934;-63
2021/05/11 07:10:21;;;;;;;;;;;13.30;99.90;;;;;;3550366;40;19941;-64
2021/05/11 07:15:32;;;;;;;;;;;;;;;;;;3559558;40;20199;-64
2021/05/11 07:17:58;;;;;;;;;;;;;;;;;;3559745;40;19937;-64
2021/05/11 07:20:24;;;;;;;;;;;;;;;;;;3559182;40;19944;-64
2021/05/11 07:22:49;;;;;;;;;;;;;;;;;;3558265;40;20199;-64
2021/05/11 07:25:15;;;;;;;;;;;;;;;;;;3550223;40;19934;-64
2021/05/11 07:30:15;;;;;;;;;;;;;;;;;;3560018;40;19944;-64
2021/05/11 07:32:42;;;;;;;;;;;;;;;;;;3560959;40;19944;-63
2021/05/11 07:35:09;;;;;;;;;;;13.30;99.90;;;;;;3560870;40;19933;-63
2021/05/11 07:37:35;;;;;;;;;;;13.30;99.90;;;;;;3554559;40;19933;-64
2021/05/11 07:40:00;;;;;;;;;;;13.20;99.90;;;;;;3560773;40;20027;-64
2021/05/11 07:42:26;;;;;;;;;;;13.30;99.90;;;;;;3551609;40;19940;-64
2021/05/11 07:44:56;;;;;;;;;;;13.20;99.90;;;;;;3560837;40;19933;-63
2021/05/11 07:47:37;;;;;;;;;;;13.20;99.90;;;;;;3560719;40;19934;-64
2021/05/11 07:50:34;;;;;;;;;;;13.20;99.90;;;;;;3560670;40;19941;-64
2021/05/11 08:17:43;;;;;;;;;;;13.10;99.90;;;;;;3560888;40;19940;-64
2021/05/11 08:28:26;;;;;;;;;;;13.10;99.90;;;;;;3555868;40;19940;-64
2021/05/11 08:30:51;;;;;;;;;;;13.10;99.90;;;;;;3550794;40;19934;-65
2021/05/11 08:33:18;;;;;;;;;;;13.20;99.90;;;;;;3551058;40;19945;-64
2021/05/11 08:35:43;;;;;;;;;;;13.20;99.90;;;;;;3560238;40;19952;-64
2021/05/11 08:38:09;;;;;;;;;;;13.20;99.90;;;;;;3561153;40;19981;-64
2021/05/11 08:40:35;;;;;;;;;;;13.20;99.90;;;;;;3559025;40;19933;-65
2021/05/11 08:43:06;;;;;;;;;;;13.20;99.90;;;;;;3556664;40;20291;-64
2021/05/11 08:45:33;;;;;;;;;;;13.30;99.90;;;;;;3555887;40;19934;-64
2021/05/11 08:47:59;;;;;;;;;;;13.20;99.90;;;;;;3559047;40;20335;-65
2021/05/11 08:50:37;;;;;;;;;;;13.20;99.90;;;;;;3558355;40;19934;-64
2021/05/11 09:04:38;;;;;;;;;;;13.20;99.90;;;;;;3560150;40;19960;-65
2021/05/11 09:23:33;;;;;;;;;;;;;;;;;;3532461;40;19929;-64
2021/05/11 09:23:40;;;;;;;;;;;;;;;;;;3556317;40;19953;-64
2021/05/11 09:26:13;;;;;;;;;;;;;;;;;;3558658;40;19941;-64
2021/05/11 09:28:44;;;;;;;;;;;;;;;;;;3551073;40;19934;-64
2021/05/11 09:31:38;;;;;;;;;;;;;;;;;;3560177;40;20317;-64
2021/05/11 09:34:31;;;;;;;;;;;;;;;;;;3555321;40;19991;-64
2021/05/11 10:27:04;;;;;;;;;;;;;;;;;;3559286;40;19941;-64
2021/05/11 10:31:59;;;;;;;;;;;;;;;;;;3517975;40;20272;-64
2021/05/11 10:39:45;;;;;;;;;;;;;;;;;;3559901;40;19933;-64
2021/05/11 10:42:17;;;;;;;;;;;;;;;;;;3559866;40;20018;-64
2021/05/11 10:45:03;;;;;;;;;;;;;;;;;;3553414;40;19934;-64
2021/05/11 10:47:29;;;;;;;;;;;;;;;;;;3559539;40;19941;-64
2021/05/11 10:49:55;;;;;;;;;;;;;;;;;;3559204;40;20015;-64
2021/05/11 10:52:25;;;;;;;;;;;;;;;;;;3559698;40;19933;-65
2021/05/11 10:57:44;;;;;;;;;;;;;;;;;;3554357;40;20316;-64
2021/05/11 11:00:15;;;;;;;;;;;;;;;;;;3558184;40;19957;-64
2021/05/11 11:02:48;;;;;;;;;;;;;;;;;;3557057;40;19973;-64
2021/05/11 11:05:14;;;;;;;;;;;;;;;;;;3557756;40;19957;-65
2021/05/11 11:07:40;;;;;;;;;;;;;;;;;;3556944;40;20016;-66
2021/05/11 11:10:07;;;;;;;;;;;;;;;;;;3559280;40;19930;-64
2021/05/11 11:12:34;;;;;;;;;;;;;;;;;;3559202;40;19969;-65
2021/05/11 11:15:00;;;;;;;;;;;;;;;;;;3559283;40;20035;-64
2021/05/11 11:17:26;;;;;;;;;;;;;;;;;;3558694;40;19948;-65
2021/05/11 11:19:54;;;;;;;;;;;;;;;;;;3557841;40;20274;-64
2021/05/11 11:25:05;;;;;;;;;;;;;;;;;;3557769;40;20011;-64
2021/05/11 11:27:31;;;;;;;;;;;;;;;;;;3557144;40;19942;-64
2021/05/11 11:29:57;;;;;;;;;;;;;;;;;;3557584;40;19933;-64
2021/05/11 11:32:23;;;;;;;;;;;;;;;;;;3558084;40;19973;-65
2021/05/11 11:34:49;;;;;;;;;;;;;;;;;;3558529;40;19940;-65
2021/05/11 11:37:16;;;;;;;;;;;;;;;;;;3558748;40;19933;-64
2021/05/11 11:39:42;;;;;;;;;;;;;;;;;;3549395;40;19946;-64
2021/05/11 11:42:08;;;;;;;;;;;;;;;;;;3558297;40;20035;-65
2021/05/11 11:44:39;;;;;;;;;;;;;;;;;;3549635;40;19933;-65
2021/05/11 11:47:05;;;;;;;;;;;;;;;;;;3559112;40;19941;-64
2021/05/11 11:49:31;;;;;;;;;;;;;;;;;;3549589;40;20306;-65
2021/05/11 11:52:05;;;;;;;;;;;;;;;;;;3557353;40;20301;-64
2021/05/11 12:00:01;;;;;;;;;;;;;;;;;;3558952;40;20016;-64
2021/05/11 12:02:27;;;;;;;;;;;;;;;;;;3549380;40;20291;-64
2021/05/11 12:04:53;;;;;;;;;;;;;;;;;;3558224;40;19941;-65
2021/05/11 12:07:21;;;;;;;;;;;;;;;;;;3558070;40;19933;-65
2021/05/11 12:09:48;;;;;;;;;;;;;;;;;;3549836;40;19930;-65
2021/05/11 12:12:14;;;;;;;;;;;;;;;;;;3558051;40;19937;-64
2021/05/11 12:14:40;;;;;;;;;;;;;;;;;;3558214;40;19933;-64
2021/05/11 12:17:05;;;;;;;;;;;;;;;;;;3558547;40;19930;-65
2021/05/11 12:19:32;;;;;;;;;;;;;;;;;;3560035;40;20262;-64
2021/05/11 12:21:59;;;;;;;;;;;;;;;;;;3559513;40;19972;-65
2021/05/11 12:24:25;;;;;;;;;;;;;;;;;;3559664;40;20276;-64
2021/05/11 12:26:51;;;;;;;;;;;;;;;;;;3558777;40;19977;-64
2021/05/11 12:29:17;;;;;;;;;;;;;;;;;;3557053;40;20010;-64
2021/05/11 12:31:43;;;;;;;;;;;;;;;;;;3560227;40;19929;-64
2021/05/11 12:34:09;;;;;;;;;;;;;;;;;;3560183;40;20039;-65
2021/05/11 12:36:35;;;;;;;;;;;;;;;;;;3561321;40;19937;-65
2021/05/11 12:39:01;;;;;;;;;;;;;;;;;;3560290;40;19937;-64
2021/05/11 12:41:33;;;;;;;;;;;;;;;;;;3549785;40;20015;-65
2021/05/11 12:43:59;;;;;;;;;;;;;;;;;;3560308;40;19996;-65
2021/05/11 12:46:25;;;;;;;;;;;;;;;;;;3560211;40;19929;-65
2021/05/11 12:48:50;;;;;;;;;;;;;;;;;;3560379;40;19936;-65
2021/05/11 12:51:16;;;;;;;;;;;;;;;;;;3550847;40;20253;-65
2021/05/11 12:53:46;;;;;;;;;;;;;;;;;;3559204;40;19987;-64
2021/05/11 12:56:25;;;;;;;;;;;;;;;;;;3553914;40;19940;-64
2021/05/11 12:59:09;;;;;;;;;;;;;;;;;;3558581;40;19961;-64
2021/05/11 13:01:48;;;;;;;;;;;;;;;;;;3550945;40;19965;-64
2021/05/11 13:05:00;;;;;;;;;;;;;;;;;;3559890;40;20232;-64
2021/05/11 13:26:06;;;;;;;;;;;;;;;;;;3550354;40;19960;-63
2021/05/11 13:28:39;;;;;;;;;;;;;;;;;;3547610;40;20015;-64
2021/05/11 13:33:43;;;;;;;;;;;;;;;;;;3550057;40;19941;-64
2021/05/11 13:36:09;;;;;;;;;;;;;;;;;;3540686;40;19933;-64
2021/05/11 13:38:35;;;;;;;;;;;;;;;;;;3550201;40;19934;-64
2021/05/11 13:41:01;;;;;;;;;;;;;;;;;;3541123;40;19970;-65
2021/05/11 13:43:27;;;;;;;;;;;;;;;;;;3550119;40;19934;-65
2021/05/11 13:45:53;;;;;;;;;;;;;;;;;;3549844;40;19933;-64
2021/05/11 13:48:32;;;;;;;;;;;;;;;;;;3539926;40;19933;-64
2021/05/11 13:51:00;;;;;;;;;;;;;;;;;;3543891;40;19941;-64
2021/05/11 13:53:29;;;;;;;;;;;13.40;99.90;;;;;;3546971;40;19937;-69
2021/05/11 14:03:50;;;;;;;;;;;;;;;;;;3552398;40;19955;-65
2021/05/11 14:06:16;;;;;;;;;;;;;;;;;;3556508;40;19938;-64
2021/05/11 14:08:43;;;;;;;;;;;14.20;99.90;;;;;;3540167;40;19941;-64
2021/05/11 14:11:09;;;;;;;;;;;14.60;99.90;;;;;;3551044;40;19934;-64
2021/05/11 14:13:34;;;;;;;;;;;14.60;99.90;;;;;;3550168;40;19963;-64
2021/05/11 14:16:00;;;;;;;;;;;14.60;99.90;;;;;;3550505;40;19941;-64
2021/05/11 14:18:26;;;;;;;;;;;14.50;99.90;;;;;;3540853;40;20322;-65
2021/05/11 14:20:51;;;;;;;;;;;14.50;99.90;;;;;;3549763;40;20302;-64
2021/05/11 14:23:17;;;;;;;;;;;14.50;99.90;;;;;;3540318;40;20187;-65
2021/05/11 14:25:43;;;;;;;;;;;14.50;99.90;;;;;;3555872;40;20179;-65
2021/05/11 14:28:09;;;;;;;;;;;14.60;99.90;;;;;;3549695;40;20020;-65
2021/05/11 14:30:35;;;;;;;;;;;14.50;99.90;;;;;;3547722;40;19941;-65
2021/05/11 14:33:01;;;;;;;;;;;14.50;99.90;;;;;;3547133;40;19934;-64
2021/05/11 14:35:26;;;;;;;;;;;14.40;99.90;;;;;;3540774;40;19946;-64
2021/05/11 14:37:52;;;;;;;;;;;14.40;99.90;;;;;;3549714;40;20307;-65
2021/05/11 14:40:18;;;;;;;;;;;14.30;99.90;;;;;;3549357;40;19934;-64
2021/05/11 14:42:44;;;;;;;;;;;14.30;99.90;;;;;;3547001;40;20275;-64
2021/05/11 14:45:10;;;;;;;;;;;14.20;99.90;;;;;;3556043;40;19940;-64
2021/05/11 14:47:36;;;;;;;;;;;14.30;99.90;;;;;;3546278;40;19954;-64
2021/05/11 14:50:02;;;;;;;;;;;14.40;99.90;;;;;;3549736;40;19934;-64
2021/05/11 14:52:28;;;;;;;;;;;14.40;99.90;;;;;;3542776;40;20216;-64
2021/05/11 14:54:54;;;;;;;;;;;14.20;99.90;;;;;;3549843;40;19941;-65
2021/05/11 14:57:20;;;;;;;;;;;14.20;99.90;;;;;;3552501;40;20024;-64
2021/05/11 14:59:46;;;;;;;;;;;;;;;;;;3549711;40;19934;-64
2021/05/11 15:02:14;;;;;;;;;;;;;;;;;;3552700;40;20275;-64
2021/05/11 15:04:43;;;;;;;;;;;14.10;99.90;;;;;;3544566;40;19934;-64
2021/05/11 15:07:08;;;;;;;;;;;13.30;99.90;;;;;;3559535;40;19938;-64
2021/05/11 15:09:34;;;;;;;;;;;13.10;99.90;;;;;;3550213;40;20310;-65
2021/05/11 15:12:00;;;;;;;;;;;;;;;;;;3558557;40;19934;-66
2021/05/11 15:14:26;;;;;;;;;;;;;;;;;;3559361;40;19929;-67
2021/05/11 15:16:58;;;;;;;;;;;;;;;;;;3559594;40;19930;-67
2021/05/11 15:19:24;;;;;;;;;;;;;;;;;;3559382;40;19930;-66
2021/05/11 15:21:50;;;;;;;;;;;;;;;;;;3527739;40;20291;-67
2021/05/11 15:24:16;;;;;;;;;;;;;;;;;;3538538;40;19945;-67
2021/05/11 15:26:42;;;;;;;;;;;;;;;;;;3543183;40;19966;-66
2021/05/11 15:29:08;;;;;;;;;;;;;;;;;;3541679;40;19934;-66
2021/05/11 15:31:34;;;;;;;;;;;;;;;;;;3540100;40;20021;-66
2021/05/11 15:34:00;;;;;;;;;;;;;;;;;;3538799;40;19946;-66
2021/05/11 15:36:26;;;;;;;;;;;;;;;;;;3540299;40;19946;-66
2021/05/11 15:38:52;;;;;;;;;;;;;;;;;;3540106;40;19934;-66
2021/05/11 15:41:19;;;;;;;;;;;;;;;;;;3546660;40;19934;-66
2021/05/11 15:43:45;;;;;;;;;;;;;;;;;;3539615;40;19934;-66
2021/05/11 15:46:11;;;;;;;;;;;;;;;;;;3545288;40;20020;-66
2021/05/11 15:48:37;;;;;;;;;;;;;;;;;;3539620;40;20280;-66
2021/05/11 15:51:02;;;;;;;;;;;;;;;;;;3542109;40;19940;-66
2021/05/11 15:53:29;;;;;;;;;;;12.30;99.90;;;;;;3541020;40;19948;-67
2021/05/11 15:55:55;;;;;;;;;;;12.30;99.90;;;;;;3542791;40;19946;-65
2021/05/11 15:58:21;;;;;;;;;;;12.30;99.90;;;;;;3540665;40;19948;-65
2021/05/11 16:00:49;;;;;;;;;;;12.30;99.90;;;;;;3539935;40;19974;-65
2021/05/11 16:03:15;;;;;;;;;;;12.00;99.90;;;;;;3538946;40;19951;-66
2021/05/11 16:05:41;;;;;;;;;;;12.10;99.90;;;;;;3528249;40;19946;-66
2021/05/11 16:08:07;;;;;;;;;;;12.10;99.90;;;;;;3539903;40;19935;-64
2021/05/11 16:10:34;;;;;;;;;;;12.10;99.90;;;;;;3530401;40;19934;-64
2021/05/11 16:13:00;;;;;;;;;;;;;;;;;;3540089;40;19981;-64
2021/05/11 16:15:26;;;;;;;;;;;;;;;;;;3539024;40;20288;-63
2021/05/11 16:17:52;;;;;;;;;;;;;;;;;;3538449;40;19938;-65
2021/05/11 16:20:18;;;;;;;;;;;;;;;;;;3539392;40;19934;-65
2021/05/11 16:22:44;;;;;;;;;;;;;;;;;;3540001;40;19946;-64
2021/05/11 16:25:10;;;;;;;;;;;;;;;;;;3538342;40;19941;-64
2021/05/11 16:27:36;;;;;;;;;;;;;;;;;;3539376;40;20279;-65
2021/05/11 16:30:02;;;;;;;;;;;;;;;;;;3546267;40;19940;-66
2021/05/11 16:32:27;;;;;;;;;;;;;;;;;;3547339;40;19934;-66
2021/05/11 16:34:53;;;;;;;;;;;;;;;;;;3539016;40;19940;-67
2021/05/11 16:37:19;;;;;;;;;;;;;;;;;;3538904;40;19934;-66
2021/05/11 16:39:45;;;;;;;;;;;;;;;;;;3539318;40;19934;-65
2021/05/11 16:42:12;;;;;;;;;;;;;;;;;;3539992;40;19982;-65
2021/05/11 16:44:38;;;;;;;;;;;;;;;;;;3540125;40;19948;-65
2021/05/11 16:47:04;;;;;;;;;;;;;;;;;;3539869;40;19934;-66
2021/05/11 16:49:30;;;;;;;;;;;;;;;;;;3539652;40;19949;-65
2021/05/11 16:51:56;;;;;;;;;;;;;;;;;;3547488;40;20275;-64
2021/05/11 16:54:22;;;;;;;;;;;;;;;;;;3531446;40;19966;-64
2021/05/11 16:56:48;;;;;;;;;;;;;;;;;;3540935;40;20203;-64
2021/05/11 16:59:14;;;;;;;;;;;;;;;;;;3540553;40;19952;-64
2021/05/11 17:01:40;;;;;;;;;;;;;;;;;;3540577;40;20015;-65
2021/05/11 17:04:06;;;;;;;;;;;;;;;;;;3538484;40;19930;-65
2021/05/11 17:06:33;;;;;;;;;;;;;;;;;;3540600;40;19934;-65
2021/05/11 17:08:59;;;;;;;;;;;;;;;;;;3538632;40;20205;-65
2021/05/11 17:11:26;;;;;;;;;;;11.60;99.90;;;;;;3538972;40;19937;-65
2021/05/11 17:13:52;;;;;;;;;;;;;;;;;;3539262;40;19938;-65
2021/05/11 17:16:18;;;;;;;;;;;;;;;;;;3537617;40;19934;-65
2021/05/11 17:18:44;;;;;;;;;;;;;;;;;;3543661;40;20063;-64
2021/05/11 17:21:10;;;;;;;;;;;;;;;;;;3548342;40;19941;-65
2021/05/11 17:23:36;;;;;;;;;;;;;;;;;;3543263;40;19941;-65
2021/05/11 17:26:01;;;;;;;;;;;;;;;;;;3547615;40;19934;-64
2021/05/11 17:28:32;;;;;;;;;;;;;;;;;;3540778;40;19941;-64
2021/05/11 17:30:59;;;;;;;;;;;;;;;;;;3539793;40;19934;-65
2021/05/11 17:33:25;;;;;;;;;;;;;;;;;;3539595;40;19942;-65
2021/05/11 17:35:51;;;;;;;;;;;;;;;;;;3540415;40;19934;-64
2021/05/11 17:38:20;;;;;;;;;;;;;;;;;;3539905;40;19941;-65
2021/05/11 17:40:46;;;;;;;;;;;;;;;;;;3540215;40;20020;-65
2021/05/11 17:43:12;;;;;;;;;;;;;;;;;;3538701;40;19934;-65
2021/05/11 17:45:39;;;;;;;;;;;;;;;;;;3539740;40;19934;-65
2021/05/11 17:48:05;;;;;;;;;;;;;;;;;;3540324;40;19934;-65
2021/05/11 17:50:31;;;;;;;;;;;;;;;;;;3541040;40;20214;-64
2021/05/11 17:52:58;;;;;;;;;;;;;;;;;;3541730;40;19941;-70
2021/05/11 17:55:24;;;;;;;;;;;;;;;;;;3542539;40;20025;-65
2021/05/11 17:57:50;;;;;;;;;;;;;;;;;;3540020;40;19934;-65
2021/05/11 18:00:16;;;;;;;;;;;;;;;;;;3540131;40;20283;-70
2021/05/11 18:02:42;;;;;;;;;;;;;;;;;;3540081;40;19942;-64
2021/05/11 18:05:08;;;;;;;;;;;;;;;;;;3541378;40;19930;-64
2021/05/11 18:07:34;;;;;;;;;;;;;;;;;;3539427;40;19933;-65
2021/05/11 18:10:00;;;;;;;;;;;;;;;;;;3531011;40;19942;-66
2021/05/11 18:12:26;;;;;;;;;;;;;;;;;;3541322;40;20353;-65
2021/05/11 18:14:52;;;;;;;;;;;;;;;;;;3545705;40;19937;-65
2021/05/11 18:17:18;;;;;;;;;;;;;;;;;;3543059;40;19941;-65
2021/05/11 18:19:44;;;;;;;;;;;;;;;;;;3539456;40;19934;-64
2021/05/11 18:22:11;;;;;;;;;;;;;;;;;;3542319;40;20296;-65
2021/05/11 18:24:37;;;;;;;;;;;;;;;;;;3546945;40;20318;-65
2021/05/11 18:27:04;;;;;;;;;;;;;;;;;;3539821;40;19946;-65
2021/05/11 18:29:30;;;;;;;;;;;;;;;;;;3538551;40;19934;-64
2021/05/11 18:31:56;;;;;;;;;;;;;;;;;;3533665;40;19934;-65
2021/05/11 18:34:22;;;;;;;;;;;;;;;;;;3538273;40;19934;-66
2021/05/11 18:39:34;;;;;;;;;;;;;;;;;;3540077;40;19945;-65
2021/05/11 18:42:01;;;;;;;;;;;;;;;;;;3540442;40;19930;-64
2021/05/11 18:44:28;;;;;;;;;;;;;;;;;;3529450;40;19930;-67
2021/05/11 18:46:54;;;;;;;;;;;;;;;;;;3540346;40;19930;-65
2021/05/11 18:49:20;;;;;;;;;;;;;;;;;;3539138;40;19966;-65
2021/05/11 18:51:46;;;;;;;;;;;;;;;;;;3537957;40;19956;-65
2021/05/11 18:54:11;;;;;;;;;;;;;;;;;;3539511;40;20319;-65
2021/05/11 18:56:37;;;;;;;;;;;;;;;;;;3538645;40;20283;-65
2021/05/11 18:59:03;;;;;;;;;;;;;;;;;;3539778;40;19930;-65
2021/05/11 19:01:30;;;;;;;;;;;;;;;;;;3539535;40;19946;-65
2021/05/11 19:03:56;;;;;;;;;;;;;;;;;;3538038;40;19934;-65
2021/05/11 19:06:22;;;;;;;;;;;;;;;;;;3536712;40;19930;-65
2021/05/11 19:08:47;;;;;;;;;;;;;;;;;;3537397;40;20294;-65
2021/05/11 19:11:13;;;;;;;;;;;;;;;;;;3529110;40;19930;-65
2021/05/11 19:13:39;;;;;;;;;;;;;;;;;;3537764;40;19930;-65
2021/05/11 19:16:07;;;;;;;;;;;;;;;;;;3546036;40;19945;-65
2021/05/11 19:18:33;;;;;;;;;;;;;;;;;;3538283;40;19936;-65
2021/05/11 19:20:59;;;;;;;;;;;;;;;;;;3539380;40;19938;-65
2021/05/11 19:23:28;;;;;;;;;;;;;;;;;;3546107;40;19931;-65
2021/05/11 19:25:54;;;;;;;;;;;;;;;;;;3543030;40;20172;-65
2021/05/11 19:28:20;;;;;;;;;;;;;;;;;;3540754;40;19937;-65
2021/05/11 19:30:45;;;;;;;;;;;;;;;;;;3536472;40;19938;-65
2021/05/11 19:33:11;;;;;;;;;;;;;;;;;;3541478;40;19938;-65
2021/05/11 19:35:38;;;;;;;;;;;;;;;;;;3537743;40;20177;-66
2021/05/11 19:38:04;;;;;;;;;;;;;;;;;;3539237;40;20189;-66
2021/05/11 19:40:30;;;;;;;;;;;;;;;;;;3540091;40;19985;-65
2021/05/11 19:42:56;;;;;;;;;;;;;;;;;;3540017;40;19930;-66
2021/05/11 19:45:23;;;;;;;;;;;;;;;;;;3538964;40;20012;-65
2021/05/11 19:47:49;;;;;;;;;;;;;;;;;;3540664;40;19966;-66
2021/05/11 19:50:15;;;;;;;;;;;;;;;;;;3539314;40;19937;-65
2021/05/11 19:52:42;;;;;;;;;;;;;;;;;;3546975;40;20366;-65